createdAt,value
2022-12-28T00:03:54.541Z,15.68
2022-12-28T00:08:57.334Z,19.60
2022-12-28T00:14:01.518Z,20.37
2022-12-28T00:19:07.201Z,20.17
2022-12-28T00:24:18.448Z,20.40
2022-12-28T00:29:20.637Z,20.27
2022-12-28T00:34:22.804Z,21.13
2022-12-28T00:39:24.947Z,22.02
2022-12-28T00:44:28.529Z,21.47
2022-12-28T00:49:30.715Z,24.67
2022-12-28T00:54:32.840Z,22.85
2022-12-28T00:59:35.095Z,21.43
2022-12-28T01:04:37.236Z,21.02
2022-12-28T01:09:39.398Z,23.20
2022-12-28T01:14:41.524Z,19.27
2022-12-28T01:19:47.353Z,15.05
2022-12-28T01:24:54.349Z,14.70
2022-12-28T01:29:56.487Z,21.05
2022-12-28T01:34:58.666Z,18.57
2022-12-28T01:40:00.844Z,21.25
2022-12-28T01:45:20.431Z,21.75
2022-12-28T01:50:27.739Z,18.57
2022-12-28T01:55:34.982Z,22.45
2022-12-28T02:00:37.325Z,18.57
2022-12-28T02:05:46.074Z,20.23
2022-12-28T02:10:49.617Z,21.95
2022-12-28T02:15:51.860Z,21.87
2022-12-28T02:21:06.062Z,23.30
2022-12-28T02:26:39.434Z,22.30
2022-12-28T02:31:44.836Z,28.45
2022-12-28T02:36:53.860Z,26.05
2022-12-28T02:41:57.501Z,27.33
2022-12-28T02:52:34.208Z,27.17
2022-12-28T02:58:04.020Z,28.92
2022-12-28T03:03:41.470Z,27.98
2022-12-28T03:09:13.065Z,27.97
2022-12-28T03:14:20.759Z,28.17
2022-12-28T03:19:47.056Z,28.87
2022-12-28T03:25:08.353Z,28.52
2022-12-28T03:30:34.227Z,27.95
2022-12-28T03:35:49.733Z,28.33
2022-12-28T03:40:58.582Z,30.08
2022-12-28T03:46:07.715Z,27.70
2022-12-28T03:51:12.407Z,29.60
2022-12-28T03:56:20.139Z,27.52
2022-12-28T04:01:23.130Z,26.17
2022-12-28T04:06:26.842Z,33.45
2022-12-28T04:11:28.967Z,28.63
2022-12-28T04:16:32.058Z,32.00
2022-12-28T04:21:34.219Z,32.45
2022-12-28T04:26:36.418Z,34.00
2022-12-28T04:31:38.688Z,31.37
2022-12-28T04:36:41.984Z,28.97
2022-12-28T04:41:44.180Z,32.05
2022-12-28T04:46:46.713Z,31.95
2022-12-28T04:51:49.014Z,28.80
2022-12-28T04:56:51.172Z,32.80
2022-12-28T05:01:53.417Z,29.53
2022-12-28T05:06:55.735Z,32.28
2022-12-28T05:11:57.869Z,24.87
2022-12-28T05:17:00.007Z,27.13
2022-12-28T05:22:02.202Z,29.48
2022-12-28T05:27:05.136Z,29.27
2022-12-28T05:32:07.365Z,29.87
2022-12-28T05:37:09.664Z,29.30
2022-12-28T05:42:11.808Z,28.67
2022-12-28T05:47:13.988Z,27.35
2022-12-28T05:52:16.137Z,26.73
2022-12-28T05:57:18.273Z,26.48
2022-12-28T06:02:24.716Z,27.75
2022-12-28T06:07:27.211Z,33.17
2022-12-28T06:12:29.374Z,33.28
2022-12-28T06:17:31.523Z,32.20
2022-12-28T06:22:33.802Z,33.00
2022-12-28T06:27:36.083Z,29.50
2022-12-28T06:32:38.221Z,31.80
2022-12-28T06:37:40.746Z,32.60
2022-12-28T06:42:43.506Z,32.70
2022-12-28T06:47:45.683Z,35.35
2022-12-28T06:52:47.853Z,32.85
2022-12-28T06:57:50.006Z,34.23
2022-12-28T07:02:57.695Z,42.17
2022-12-28T07:07:59.877Z,36.70
2022-12-28T07:13:02.058Z,39.65
2022-12-28T07:18:04.404Z,40.25
2022-12-28T07:23:06.663Z,36.80
2022-12-28T07:28:08.817Z,39.83
2022-12-28T07:33:10.980Z,34.33
2022-12-28T07:38:16.615Z,41.92
2022-12-28T07:43:23.255Z,33.88
2022-12-28T07:48:25.503Z,31.37
2022-12-28T07:53:27.795Z,29.42
2022-12-28T07:58:30.163Z,27.60
2022-12-28T08:03:32.665Z,31.25
2022-12-28T08:08:43.432Z,28.08
2022-12-28T08:13:47.669Z,29.90
2022-12-28T08:18:50.324Z,26.52
2022-12-28T08:23:52.727Z,30.10
2022-12-28T08:28:58.209Z,28.17
2022-12-28T08:34:01.998Z,30.30
2022-12-28T08:39:04.998Z,30.13
2022-12-28T08:44:07.223Z,32.45
2022-12-28T08:49:09.451Z,29.50
2022-12-28T08:54:13.675Z,28.62
2022-12-28T08:59:18.520Z,28.75
2022-12-28T09:04:22.372Z,26.43
2022-12-28T09:09:25.773Z,28.60
2022-12-28T09:14:27.983Z,29.00
2022-12-28T09:19:30.139Z,26.08
2022-12-28T09:24:32.416Z,22.90
2022-12-28T09:29:35.991Z,23.80
2022-12-28T09:34:38.564Z,24.92
2022-12-28T09:39:40.941Z,24.83
2022-12-28T09:45:01.834Z,22.83
2022-12-28T09:50:04.128Z,25.42
2022-12-28T09:55:14.808Z,28.00
2022-12-28T10:00:23.071Z,23.73
2022-12-28T10:05:26.963Z,24.27
2022-12-28T10:10:30.324Z,22.73
2022-12-28T10:15:36.549Z,23.42
2022-12-28T10:20:40.839Z,23.40
2022-12-28T10:25:42.995Z,21.17
2022-12-28T10:31:09.544Z,20.43
2022-12-28T10:36:14.314Z,22.50
2022-12-28T10:41:20.604Z,21.30
2022-12-28T10:46:24.071Z,18.53
2022-12-28T10:51:29.738Z,15.90
2022-12-28T10:56:33.703Z,18.17
2022-12-28T11:01:36.347Z,16.83
2022-12-28T11:06:51.548Z,14.95
2022-12-28T11:11:59.664Z,15.07
2022-12-28T11:17:14.010Z,15.52
2022-12-28T11:22:22.465Z,17.10
2022-12-28T11:27:25.249Z,16.40
2022-12-28T11:32:32.724Z,15.73
2022-12-28T11:37:35.411Z,16.03
2022-12-28T11:42:39.531Z,16.12
2022-12-28T11:47:43.477Z,18.47
2022-12-28T11:52:48.519Z,17.40
2022-12-28T11:57:51.226Z,16.60
2022-12-28T12:03:01.139Z,17.33
2022-12-28T12:08:23.349Z,18.15
2022-12-28T12:13:25.509Z,19.10
2022-12-28T12:18:30.028Z,14.07
2022-12-28T12:23:36.726Z,16.92
2022-12-28T12:28:48.599Z,14.93
2022-12-28T12:33:53.121Z,16.25
2022-12-28T12:39:25.288Z,15.10
2022-12-28T12:44:57.648Z,14.23
2022-12-28T12:50:02.492Z,14.38
2022-12-28T12:55:32.865Z,15.03
2022-12-28T13:01:00.294Z,14.77
2022-12-28T13:06:05.922Z,14.23
2022-12-28T13:11:12.653Z,15.13
2022-12-28T13:16:18.426Z,14.45
2022-12-28T13:23:21.526Z,13.10
2022-12-28T13:28:27.933Z,13.60
2022-12-28T13:33:31.658Z,12.03
2022-12-28T13:38:33.890Z,14.32
2022-12-28T13:43:46.385Z,12.83
2022-12-28T13:48:52.622Z,14.70
2022-12-28T13:54:01.104Z,12.23
2022-12-28T13:59:07.794Z,12.40
2022-12-28T14:09:37.821Z,12.73
2022-12-28T14:14:44.476Z,12.90
2022-12-28T14:19:46.946Z,13.48
2022-12-28T14:25:07.175Z,13.43
2022-12-28T14:30:25.065Z,12.10
2022-12-28T14:35:28.720Z,11.47
2022-12-28T14:40:34.004Z,12.23
2022-12-28T14:46:05.297Z,11.30
2022-12-28T14:51:25.234Z,12.33
2022-12-28T14:56:34.620Z,12.63
2022-12-28T15:01:46.041Z,11.50
2022-12-28T15:06:49.757Z,11.95
2022-12-28T15:12:17.750Z,11.63
2022-12-28T15:17:20.307Z,11.37
2022-12-28T15:22:22.496Z,10.82
2022-12-28T15:27:24.694Z,9.63
2022-12-28T15:32:27.169Z,11.23
2022-12-28T15:37:29.391Z,13.10
2022-12-28T15:42:38.153Z,12.83
2022-12-28T15:47:42.879Z,17.65
2022-12-28T15:52:45.158Z,14.03
2022-12-28T15:57:48.483Z,12.18
2022-12-28T16:02:51.625Z,12.88
2022-12-28T16:07:54.396Z,14.93
2022-12-28T16:12:59.351Z,15.20
2022-12-28T16:18:02.356Z,17.47
2022-12-28T16:28:44.500Z,17.10
2022-12-28T16:33:47.001Z,17.37
2022-12-28T16:38:57.386Z,16.73
2022-12-28T16:44:24.409Z,17.77
2022-12-28T17:02:02.646Z,15.53
2022-12-28T17:12:40.932Z,19.40
2022-12-28T17:18:11.669Z,18.35
2022-12-28T17:29:19.293Z,17.50
2022-12-28T17:34:22.258Z,17.67
2022-12-28T17:39:39.952Z,16.53
2022-12-28T17:44:45.932Z,15.50
2022-12-28T17:51:11.718Z,15.95
2022-12-28T18:16:22.885Z,17.58
2022-12-28T18:21:57.745Z,15.98
2022-12-28T18:26:08.119Z,16.87
2022-12-28T18:31:21.228Z,15.10
2022-12-28T18:42:06.600Z,15.98
2022-12-28T18:53:21.047Z,19.03
2022-12-28T19:00:05.240Z,20.40
2022-12-28T19:04:39.263Z,16.67
2022-12-28T19:10:08.074Z,17.65
2022-12-28T19:15:14.317Z,17.08
2022-12-28T19:20:16.547Z,15.83
2022-12-28T19:25:18.765Z,15.73
2022-12-28T19:30:21.017Z,16.27
2022-12-28T19:35:23.634Z,16.35
2022-12-28T19:40:25.867Z,25.25
2022-12-28T19:45:28.055Z,19.67
2022-12-28T19:51:30.533Z,19.00
2022-12-28T19:56:34.284Z,21.90
2022-12-28T20:01:37.613Z,18.90
2022-12-28T20:06:40.972Z,20.00
2022-12-28T20:11:45.011Z,18.30
2022-12-28T20:16:47.441Z,20.12
2022-12-28T20:21:49.764Z,19.83
2022-12-28T20:27:01.105Z,18.58
2022-12-28T20:32:04.018Z,16.65
2022-12-28T20:37:06.610Z,20.47
2022-12-28T20:42:32.151Z,21.12
2022-12-28T20:47:34.363Z,20.57
2022-12-28T20:53:26.297Z,21.77
2022-12-28T20:58:00.850Z,24.20
2022-12-28T21:03:03.414Z,28.20
2022-12-28T21:08:05.810Z,26.48
2022-12-28T21:13:07.964Z,27.93
2022-12-28T21:18:10.169Z,29.48
2022-12-28T21:23:12.807Z,26.08
2022-12-28T21:28:15.047Z,27.27
2022-12-28T21:33:17.244Z,26.48
2022-12-28T21:38:19.988Z,28.50
2022-12-28T21:43:22.254Z,32.63
2022-12-28T21:48:24.502Z,26.45
2022-12-28T21:53:27.163Z,24.50
2022-12-28T21:58:29.385Z,27.08
2022-12-28T22:09:56.739Z,29.50
2022-12-28T22:27:09.858Z,29.70
2022-12-28T22:32:12.128Z,28.97
2022-12-28T22:37:17.511Z,31.35
2022-12-28T22:42:20.688Z,28.00
2022-12-28T22:47:23.153Z,29.30
2022-12-28T22:52:25.370Z,24.80
2022-12-28T22:57:31.621Z,28.27
2022-12-28T23:02:33.946Z,25.67
2022-12-28T23:07:38.675Z,26.77
2022-12-28T23:12:41.016Z,26.00
2022-12-28T23:17:43.363Z,30.08
2022-12-28T23:23:20.955Z,28.47
2022-12-28T23:28:23.113Z,26.50
2022-12-28T23:33:25.339Z,28.45
2022-12-28T23:38:27.581Z,27.27
2022-12-28T23:43:31.406Z,26.70
2022-12-28T23:48:33.985Z,27.43
2022-12-28T23:53:36.470Z,27.35
2022-12-28T23:58:43.342Z,32.97
